createdAt,value
2019-05-22T00:00:29.522Z,29.37
2019-05-22T00:03:00.298Z,28.10
2019-05-22T00:05:31.979Z,27.05
2019-05-22T00:08:01.423Z,27.50
2019-05-22T00:10:31.753Z,28.40
2019-05-22T00:13:00.531Z,30.02
2019-05-22T00:15:30.528Z,26.68
2019-05-22T00:18:01.497Z,27.55
2019-05-22T00:20:31.032Z,29.20
2019-05-22T00:23:01.777Z,26.65
2019-05-22T00:25:33.115Z,30.60
2019-05-22T00:28:02.200Z,32.60
2019-05-22T00:30:32.670Z,26.77
2019-05-22T00:33:02.257Z,38.17
2019-05-22T00:35:31.430Z,29.52
2019-05-22T00:38:01.673Z,32.63
2019-05-22T00:40:31.801Z,30.88
2019-05-22T00:43:04.119Z,29.40
2019-05-22T00:45:31.303Z,34.13
2019-05-22T00:48:00.280Z,31.87
2019-05-22T00:50:32.786Z,29.75
2019-05-22T00:53:02.962Z,34.40
2019-05-22T00:55:37.064Z,26.60
2019-05-22T00:58:07.947Z,25.72
2019-05-22T01:00:39.914Z,26.25
2019-05-22T01:03:10.024Z,26.33
2019-05-22T01:05:41.697Z,33.28
2019-05-22T01:08:13.750Z,27.85
2019-05-22T01:10:45.730Z,30.57
2019-05-22T01:13:15.277Z,33.80
2019-05-22T01:15:43.743Z,30.60
2019-05-22T01:18:15.323Z,28.60
2019-05-22T01:20:45.707Z,35.35
2019-05-22T01:23:16.153Z,35.73
2019-05-22T01:25:45.903Z,30.23
2019-05-22T01:28:15.962Z,34.03
2019-05-22T01:30:46.189Z,34.40
2019-05-22T01:33:16.411Z,35.03
2019-05-22T01:35:49.157Z,41.10
2019-05-22T01:38:18.904Z,34.70
2019-05-22T01:40:50.374Z,34.33
2019-05-22T01:43:21.845Z,32.17
2019-05-22T01:45:55.374Z,34.90
2019-05-22T01:48:27.461Z,40.35
2019-05-22T01:50:57.474Z,37.47
2019-05-22T01:53:31.494Z,37.30
2019-05-22T01:56:00.033Z,38.20
2019-05-22T01:58:30.647Z,35.38
2019-05-22T02:01:00.463Z,35.23
2019-05-22T02:03:30.682Z,39.30
2019-05-22T02:06:00.784Z,40.80
2019-05-22T02:08:29.822Z,38.78
2019-05-22T02:10:59.998Z,43.23
2019-05-22T02:13:42.165Z,32.80
2019-05-22T02:16:11.900Z,39.90
2019-05-22T02:18:41.921Z,37.05
2019-05-22T02:21:11.360Z,37.20
2019-05-22T02:23:40.726Z,37.42
2019-05-22T02:26:10.835Z,38.97
2019-05-22T02:28:40.505Z,39.15
2019-05-22T02:31:08.975Z,37.80
2019-05-22T02:33:55.816Z,37.83
2019-05-22T02:36:25.014Z,37.87
2019-05-22T02:38:54.759Z,38.63
2019-05-22T02:41:24.857Z,41.50
2019-05-22T02:43:53.403Z,41.83
2019-05-22T02:46:22.938Z,38.65
2019-05-22T02:48:52.086Z,33.53
2019-05-22T02:51:20.859Z,38.03
2019-05-22T02:53:51.154Z,41.95
2019-05-22T02:56:19.706Z,39.73
2019-05-22T02:58:49.438Z,38.65
2019-05-22T03:01:17.917Z,41.10
2019-05-22T03:03:47.354Z,45.80
2019-05-22T03:06:16.718Z,39.20
2019-05-22T03:08:57.226Z,41.60
2019-05-22T03:11:28.402Z,42.87
2019-05-22T03:14:00.519Z,38.25
2019-05-22T03:16:44.100Z,33.63
2019-05-22T03:19:17.385Z,33.80
2019-05-22T03:21:46.163Z,40.03
2019-05-22T03:24:14.994Z,41.15
2019-05-22T03:26:50.817Z,42.70
2019-05-22T03:29:22.462Z,41.00
2019-05-22T03:31:50.971Z,37.80
2019-05-22T03:34:20.423Z,40.88
2019-05-22T03:36:48.990Z,41.63
2019-05-22T03:39:18.211Z,35.63
2019-05-22T03:41:47.286Z,37.13
2019-05-22T03:44:16.233Z,38.63
2019-05-22T03:46:46.172Z,38.90
2019-05-22T03:49:29.216Z,38.88
2019-05-22T03:51:47.438Z,37.43
2019-05-22T03:54:16.250Z,34.60
2019-05-22T03:56:44.746Z,33.77
2019-05-22T03:59:13.582Z,34.35
2019-05-22T04:01:43.226Z,38.53
2019-05-22T04:04:11.702Z,32.38
2019-05-22T04:06:40.278Z,35.13
2019-05-22T04:09:20.374Z,37.65
2019-05-22T04:11:49.914Z,39.13
2019-05-22T04:14:19.430Z,31.02
2019-05-22T04:16:49.670Z,39.30
2019-05-22T04:19:18.219Z,34.05
2019-05-22T04:21:47.665Z,31.73
2019-05-22T04:24:16.528Z,37.25
2019-05-22T04:26:45.199Z,38.08
2019-05-22T04:29:15.266Z,34.05
2019-05-22T04:31:50.977Z,35.93
2019-05-22T04:34:20.811Z,33.38
2019-05-22T04:36:53.965Z,32.13
2019-05-22T04:39:25.764Z,36.03
2019-05-22T04:41:55.068Z,34.30
2019-05-22T04:44:24.014Z,31.10
2019-05-22T04:46:52.780Z,30.37
2019-05-22T04:49:21.318Z,29.85
2019-05-22T04:51:50.401Z,37.90
2019-05-22T04:54:19.042Z,38.73
2019-05-22T04:56:47.896Z,33.47
2019-05-22T04:59:16.610Z,32.70
2019-05-22T05:01:46.208Z,29.67
2019-05-22T05:04:15.981Z,33.65
2019-05-22T05:06:45.523Z,29.73
2019-05-22T05:09:14.848Z,31.35
2019-05-22T05:11:43.678Z,35.00
2019-05-22T05:14:12.256Z,34.05
2019-05-22T05:16:40.881Z,36.23
2019-05-22T05:19:09.393Z,31.20
2019-05-22T05:21:38.425Z,37.60
2019-05-22T05:24:07.164Z,33.23
2019-05-22T05:26:37.544Z,37.93
2019-05-22T05:29:07.757Z,32.48
2019-05-22T05:31:36.395Z,34.30
2019-05-22T05:34:19.931Z,37.00
2019-05-22T05:36:48.534Z,32.63
2019-05-22T05:39:39.732Z,32.85
2019-05-22T05:42:08.209Z,29.67
2019-05-22T05:44:36.896Z,33.40
2019-05-22T05:47:07.117Z,39.17
2019-05-22T05:49:35.801Z,35.95
2019-05-22T05:52:05.905Z,33.13
2019-05-22T05:54:35.251Z,36.63
2019-05-22T05:57:12.817Z,30.80
2019-05-22T05:59:42.344Z,32.17
2019-05-22T06:02:11.194Z,32.97
2019-05-22T06:04:39.840Z,28.95
2019-05-22T06:07:17.520Z,34.00
2019-05-22T06:09:48.478Z,32.67
2019-05-22T06:12:16.949Z,38.93
2019-05-22T06:14:46.860Z,29.50
2019-05-22T06:17:31.242Z,30.50
2019-05-22T06:20:11.861Z,34.78
2019-05-22T06:22:41.690Z,33.83
2019-05-22T06:25:10.610Z,31.82
2019-05-22T06:27:43.681Z,31.97
2019-05-22T06:30:21.721Z,27.73
2019-05-22T06:33:12.112Z,30.10
2019-05-22T06:35:40.986Z,29.12
2019-05-22T06:38:29.488Z,30.82
2019-05-22T06:40:58.502Z,32.70
2019-05-22T06:43:30.223Z,32.53
2019-05-22T06:45:58.893Z,29.70
2019-05-22T06:48:27.379Z,34.35
2019-05-22T06:50:56.705Z,31.03
2019-05-22T06:53:25.246Z,31.85
2019-05-22T06:55:53.807Z,39.83
2019-05-22T06:58:22.550Z,27.95
2019-05-22T07:00:51.046Z,28.63
2019-05-22T07:03:20.672Z,28.57
2019-05-22T07:05:50.228Z,30.30
2019-05-22T07:08:18.782Z,29.77
2019-05-22T07:10:47.289Z,28.87
2019-05-22T07:13:16.833Z,36.53
2019-05-22T07:15:46.407Z,30.75
2019-05-22T07:18:16.268Z,26.97
2019-05-22T07:20:45.704Z,34.38
2019-05-22T07:23:15.867Z,30.80
2019-05-22T07:25:46.614Z,30.90
2019-05-22T07:28:18.158Z,35.05
2019-05-22T07:30:47.242Z,31.10
2019-05-22T07:33:16.052Z,24.85
2019-05-22T07:36:05.448Z,28.43
2019-05-22T07:38:15.778Z,27.07
2019-05-22T07:40:44.758Z,26.43
2019-05-22T07:43:14.032Z,30.55
2019-05-22T07:45:43.011Z,27.10
2019-05-22T07:48:13.778Z,27.07
2019-05-22T07:50:48.804Z,28.62
2019-05-22T07:53:17.336Z,27.82
2019-05-22T07:55:46.580Z,27.67
2019-05-22T07:58:16.682Z,26.37
2019-05-22T08:00:47.998Z,26.70
2019-05-22T08:03:16.984Z,28.92
2019-05-22T08:05:47.537Z,27.58
2019-05-22T08:08:18.750Z,26.75
2019-05-22T08:10:46.795Z,25.77
2019-05-22T08:13:15.402Z,25.70
2019-05-22T08:15:47.731Z,30.15
2019-05-22T08:18:16.099Z,27.58
2019-05-22T08:20:45.325Z,28.98
2019-05-22T08:23:14.040Z,31.60
2019-05-22T08:25:42.639Z,30.00
2019-05-22T08:28:11.457Z,25.72
2019-05-22T08:30:39.943Z,25.70
2019-05-22T08:33:11.502Z,23.10
2019-05-22T08:35:40.839Z,30.48
2019-05-22T08:38:11.420Z,27.90
2019-05-22T08:40:41.107Z,26.43
2019-05-22T08:43:10.134Z,23.55
2019-05-22T08:45:38.880Z,23.73
2019-05-22T08:48:07.915Z,24.18
2019-05-22T08:50:37.552Z,22.35
2019-05-22T08:53:07.004Z,20.97
2019-05-22T08:55:36.225Z,22.00
2019-05-22T08:58:05.915Z,18.50
2019-05-22T09:00:34.757Z,21.07
2019-05-22T09:03:03.285Z,20.57
2019-05-22T09:05:32.403Z,22.33
2019-05-22T09:08:00.893Z,17.17
2019-05-22T09:10:29.632Z,20.13
2019-05-22T09:12:58.151Z,19.20
2019-05-22T09:15:26.661Z,17.20
2019-05-22T09:17:55.172Z,15.47
2019-05-22T09:20:24.015Z,14.93
2019-05-22T09:22:53.116Z,12.40
2019-05-22T09:25:21.732Z,15.00
2019-05-22T09:27:50.499Z,14.90
2019-05-22T09:30:19.314Z,13.28
2019-05-22T09:32:47.887Z,15.00
2019-05-22T09:35:16.802Z,18.30
2019-05-22T09:37:45.302Z,13.70
2019-05-22T09:40:14.042Z,16.67
2019-05-22T09:42:42.807Z,18.13
2019-05-22T09:45:11.589Z,19.30
2019-05-22T09:47:40.086Z,17.30
2019-05-22T09:50:11.152Z,16.20
2019-05-22T09:52:56.280Z,13.93
2019-05-22T09:55:13.103Z,14.53
2019-05-22T09:57:41.657Z,15.93
2019-05-22T10:00:12.420Z,18.25
2019-05-22T10:02:41.758Z,14.53
2019-05-22T10:05:11.247Z,17.67
2019-05-22T10:07:57.097Z,17.70
2019-05-22T10:10:10.662Z,15.72
2019-05-22T10:12:39.321Z,14.50
2019-05-22T10:15:10.459Z,16.73
2019-05-22T10:17:42.363Z,17.67
2019-05-22T10:20:11.841Z,19.20
2019-05-22T10:22:40.419Z,18.30
2019-05-22T10:25:15.488Z,22.33
2019-05-22T10:27:40.069Z,17.77
2019-05-22T10:30:12.035Z,19.65
2019-05-22T10:32:40.618Z,20.43
2019-05-22T10:35:11.114Z,19.57
2019-05-22T10:37:40.223Z,17.13
2019-05-22T10:40:09.509Z,22.63
2019-05-22T10:42:38.009Z,23.63
2019-05-22T10:45:06.954Z,26.47
2019-05-22T10:47:36.189Z,24.77
2019-05-22T10:50:06.726Z,21.23
2019-05-22T10:52:35.280Z,22.37
2019-05-22T10:55:04.916Z,24.20
2019-05-22T10:57:33.877Z,30.20
2019-05-22T11:00:02.367Z,34.35
2019-05-22T11:02:31.778Z,32.40
2019-05-22T11:05:00.343Z,34.90
2019-05-22T11:07:29.666Z,39.03
2019-05-22T11:09:58.240Z,35.77
2019-05-22T11:12:27.341Z,36.60
2019-05-22T11:14:56.713Z,35.27
2019-05-22T11:17:25.457Z,34.47
2019-05-22T11:19:54.021Z,35.70
2019-05-22T11:22:22.635Z,38.43
2019-05-22T11:24:51.297Z,37.10
2019-05-22T11:27:19.854Z,35.80
2019-05-22T11:29:49.370Z,32.40
2019-05-22T11:32:18.222Z,29.53
2019-05-22T11:34:46.896Z,38.53
2019-05-22T11:37:15.610Z,28.73
2019-05-22T11:39:45.366Z,28.97
2019-05-22T11:42:13.978Z,34.40
2019-05-22T11:44:42.485Z,27.73
2019-05-22T11:47:12.093Z,28.15
2019-05-22T11:49:40.660Z,28.50
2019-05-22T11:52:09.268Z,24.27
2019-05-22T11:54:38.039Z,26.40
2019-05-22T11:57:06.506Z,24.77
2019-05-22T11:59:37.016Z,22.27
2019-05-22T12:02:05.546Z,26.50
2019-05-22T12:04:47.249Z,25.90
2019-05-22T12:07:05.440Z,24.20
2019-05-22T12:09:34.416Z,21.33
2019-05-22T12:12:03.361Z,22.90
2019-05-22T12:14:32.129Z,25.03
2019-05-22T12:17:01.154Z,30.80
2019-05-22T12:19:29.878Z,29.30
2019-05-22T12:21:58.402Z,27.33
2019-05-22T12:24:30.267Z,26.30
2019-05-22T12:26:57.569Z,26.13
2019-05-22T12:29:27.098Z,25.47
2019-05-22T12:31:55.677Z,29.40
2019-05-22T12:34:24.445Z,26.90
2019-05-22T12:36:53.038Z,31.13
2019-05-22T12:39:23.482Z,27.23
2019-05-22T12:41:53.076Z,26.33
2019-05-22T12:44:22.017Z,23.67
2019-05-22T12:46:50.848Z,22.27
2019-05-22T12:49:19.588Z,25.83
2019-05-22T12:51:49.409Z,25.60
2019-05-22T12:54:17.866Z,22.80
2019-05-22T12:56:46.439Z,22.03
2019-05-22T12:59:14.989Z,20.87
2019-05-22T13:01:43.825Z,20.60
2019-05-22T13:04:12.875Z,23.43
2019-05-22T13:06:41.647Z,22.17
2019-05-22T13:09:10.754Z,18.50
2019-05-22T13:11:39.906Z,20.50
2019-05-22T13:14:08.553Z,18.27
2019-05-22T13:16:37.795Z,18.70
2019-05-22T13:19:07.113Z,19.40
2019-05-22T13:21:37.845Z,21.60
2019-05-22T13:24:18.869Z,20.53
2019-05-22T13:26:47.625Z,15.90
2019-05-22T13:29:16.337Z,21.63
2019-05-22T13:31:45.500Z,15.37
2019-05-22T13:34:16.691Z,16.73
2019-05-22T13:36:46.521Z,15.23
2019-05-22T13:39:16.730Z,15.00
2019-05-22T13:41:45.586Z,14.80
2019-05-22T13:44:14.994Z,14.10
2019-05-22T13:46:43.769Z,14.53
2019-05-22T13:49:12.406Z,13.30
2019-05-22T13:51:41.143Z,14.70
2019-05-22T13:54:10.454Z,16.03
2019-05-22T13:56:39.194Z,12.83
2019-05-22T13:59:08.232Z,14.00
2019-05-22T14:01:36.896Z,16.30
2019-05-22T14:04:05.578Z,14.40
2019-05-22T14:06:34.519Z,14.87
2019-05-22T14:09:02.980Z,16.63
2019-05-22T14:11:32.026Z,14.70
2019-05-22T14:14:00.570Z,17.93
2019-05-22T14:16:29.442Z,14.63
2019-05-22T14:18:58.211Z,16.40
2019-05-22T14:21:26.782Z,11.40
2019-05-22T14:23:55.255Z,10.83
2019-05-22T14:26:23.761Z,12.13
2019-05-22T14:28:52.279Z,8.93
2019-05-22T14:31:21.038Z,10.17
2019-05-22T14:33:49.773Z,11.77
2019-05-22T14:36:18.846Z,10.57
2019-05-22T14:38:47.457Z,12.07
2019-05-22T14:41:16.348Z,10.63
2019-05-22T14:43:44.888Z,9.00
2019-05-22T14:46:13.453Z,14.10
2019-05-22T14:48:42.215Z,15.33
2019-05-22T14:51:11.062Z,14.57
2019-05-22T14:53:40.105Z,12.17
2019-05-22T14:56:11.001Z,17.23
2019-05-22T14:58:39.841Z,10.20
2019-05-22T15:01:09.975Z,10.97
2019-05-22T15:03:38.582Z,11.30
2019-05-22T15:06:07.420Z,11.50
2019-05-22T15:08:35.951Z,13.17
2019-05-22T15:11:05.248Z,13.63
2019-05-22T15:13:33.881Z,9.20
2019-05-22T15:16:02.351Z,10.87
2019-05-22T15:18:30.982Z,9.93
2019-05-22T15:21:00.092Z,10.33
2019-05-22T15:23:28.789Z,10.43
2019-05-22T15:25:57.395Z,9.83
2019-05-22T15:28:27.016Z,8.97
2019-05-22T15:30:55.616Z,8.07
2019-05-22T15:33:24.681Z,6.90
2019-05-22T15:35:54.186Z,5.60
2019-05-22T15:38:22.916Z,6.67
2019-05-22T15:40:53.176Z,7.28
2019-05-22T15:43:23.618Z,10.43
2019-05-22T15:45:52.913Z,7.00
2019-05-22T15:48:28.701Z,6.70
2019-05-22T15:50:59.869Z,6.50
2019-05-22T15:53:29.298Z,4.67
2019-05-22T15:55:57.892Z,5.50
2019-05-22T15:58:28.029Z,5.80
2019-05-22T16:00:58.036Z,5.22
2019-05-22T16:03:28.209Z,5.80
2019-05-22T16:05:58.873Z,5.92
2019-05-22T16:08:27.633Z,8.10
2019-05-22T16:11:00.374Z,6.03
2019-05-22T16:13:32.475Z,5.50
2019-05-22T16:16:03.920Z,6.47
2019-05-22T16:18:34.484Z,8.00
2019-05-22T16:21:04.856Z,5.10
2019-05-22T16:23:35.661Z,10.10
2019-05-22T16:26:06.304Z,7.53
2019-05-22T16:28:36.240Z,4.80
2019-05-22T16:31:06.788Z,5.20
2019-05-22T16:33:38.086Z,6.00
2019-05-22T16:36:06.554Z,4.60
2019-05-22T16:38:36.508Z,5.97
2019-05-22T16:41:05.595Z,5.57
2019-05-22T16:43:48.661Z,6.80
2019-05-22T16:46:09.500Z,10.17
2019-05-22T16:48:38.721Z,5.60
2019-05-22T16:51:11.765Z,7.23
2019-05-22T16:53:40.499Z,6.10
2019-05-22T16:56:09.031Z,6.20
2019-05-22T16:58:38.153Z,7.93
2019-05-22T17:01:06.955Z,7.13
2019-05-22T17:03:35.994Z,6.57
2019-05-22T17:06:05.308Z,8.93
2019-05-22T17:08:34.281Z,8.40
2019-05-22T17:11:04.268Z,10.37
2019-05-22T17:13:32.937Z,8.80
2019-05-22T17:16:01.542Z,11.27
2019-05-22T17:18:46.106Z,8.90
2019-05-22T17:21:02.851Z,7.80
2019-05-22T17:23:31.337Z,12.57
2019-05-22T17:26:00.241Z,11.50
2019-05-22T17:28:29.605Z,9.70
2019-05-22T17:30:58.813Z,8.10
2019-05-22T17:33:27.403Z,11.80
2019-05-22T17:35:56.678Z,8.70
2019-05-22T17:38:27.255Z,8.70
2019-05-22T17:40:55.930Z,9.67
2019-05-22T17:43:25.657Z,8.37
2019-05-22T17:45:54.388Z,9.33
2019-05-22T17:48:23.109Z,8.30
2019-05-22T17:50:51.916Z,11.00
2019-05-22T17:53:20.949Z,8.77
2019-05-22T17:55:49.937Z,7.57
2019-05-22T17:58:18.463Z,7.70
2019-05-22T18:00:51.988Z,11.00
2019-05-22T18:03:20.529Z,9.80
2019-05-22T18:05:48.996Z,8.77
2019-05-22T18:08:17.851Z,8.30
2019-05-22T18:10:48.636Z,10.90
2019-05-22T18:13:17.200Z,8.97
2019-05-22T18:15:46.776Z,10.27
2019-05-22T18:18:15.786Z,10.07
2019-05-22T18:20:44.431Z,9.63
2019-05-22T18:23:13.427Z,10.37
2019-05-22T18:25:43.443Z,9.93
2019-05-22T18:28:13.260Z,8.93
2019-05-22T18:30:45.380Z,9.47
2019-05-22T18:33:14.021Z,11.33
2019-05-22T18:35:42.597Z,13.03
2019-05-22T18:38:11.129Z,9.37
2019-05-22T18:40:39.612Z,8.90
2019-05-22T18:43:08.628Z,8.17
2019-05-22T18:45:37.361Z,8.57
2019-05-22T18:48:06.447Z,9.30
2019-05-22T18:50:35.690Z,7.80
2019-05-22T18:53:04.665Z,9.53
2019-05-22T18:55:33.328Z,8.93
2019-05-22T18:58:02.205Z,10.27
2019-05-22T19:00:32.405Z,9.90
2019-05-22T19:03:00.883Z,10.50
2019-05-22T19:05:30.982Z,10.67
2019-05-22T19:07:59.456Z,9.97
2019-05-22T19:10:28.700Z,10.27
2019-05-22T19:12:57.915Z,11.10
2019-05-22T19:15:26.498Z,12.80
2019-05-22T19:17:55.303Z,12.03
2019-05-22T19:20:24.073Z,10.40
2019-05-22T19:23:00.465Z,10.60
2019-05-22T19:25:23.516Z,11.63
2019-05-22T19:27:52.057Z,13.23
2019-05-22T19:30:21.694Z,12.30
2019-05-22T19:32:50.820Z,14.67
2019-05-22T19:35:19.314Z,14.63
2019-05-22T19:37:48.820Z,12.87
2019-05-22T19:40:18.556Z,12.20
2019-05-22T19:42:47.464Z,13.27
2019-05-22T19:45:16.734Z,11.97
2019-05-22T19:47:50.502Z,10.90
2019-05-22T19:50:23.234Z,13.33
2019-05-22T19:52:51.944Z,14.03
2019-05-22T19:55:21.503Z,17.33
2019-05-22T19:57:51.314Z,15.30
2019-05-22T20:00:21.161Z,12.57
2019-05-22T20:02:50.984Z,15.53
2019-05-22T20:05:20.936Z,13.90
2019-05-22T20:07:49.865Z,20.33
2019-05-22T20:10:18.455Z,16.00
2019-05-22T20:12:47.164Z,15.77
2019-05-22T20:15:16.985Z,14.80
2019-05-22T20:17:45.619Z,20.73
2019-05-22T20:20:15.924Z,15.90
2019-05-22T20:22:44.459Z,15.93
2019-05-22T20:25:13.978Z,14.60
2019-05-22T20:27:42.579Z,13.30
2019-05-22T20:30:13.356Z,17.10
2019-05-22T20:32:41.910Z,14.40
2019-05-22T20:35:11.339Z,17.03
2019-05-22T20:37:40.810Z,16.20
2019-05-22T20:40:10.549Z,20.40
2019-05-22T20:42:39.470Z,25.40
2019-05-22T20:45:10.774Z,17.33
2019-05-22T20:47:40.959Z,20.10
2019-05-22T20:50:11.361Z,20.43
2019-05-22T20:52:40.002Z,19.50
2019-05-22T20:55:09.611Z,19.83
2019-05-22T20:57:38.146Z,20.17
2019-05-22T21:00:10.156Z,18.10
2019-05-22T21:02:40.264Z,23.47
2019-05-22T21:05:09.453Z,15.80
2019-05-22T21:07:39.824Z,17.07
2019-05-22T21:10:08.938Z,19.10
2019-05-22T21:12:37.802Z,20.77
2019-05-22T21:15:07.243Z,18.27
2019-05-22T21:17:37.486Z,17.90
2019-05-22T21:20:09.297Z,18.50
2019-05-22T21:22:38.438Z,17.67
2019-05-22T21:25:07.812Z,21.60
2019-05-22T21:27:38.013Z,15.63
2019-05-22T21:30:08.760Z,16.23
2019-05-22T21:32:37.507Z,17.87
2019-05-22T21:35:08.074Z,18.23
2019-05-22T21:37:37.113Z,16.50
2019-05-22T21:40:06.747Z,15.03
2019-05-22T21:42:37.333Z,20.70
2019-05-22T21:45:11.099Z,20.07
2019-05-22T21:47:41.605Z,15.03
2019-05-22T21:50:11.702Z,18.47
2019-05-22T21:52:40.269Z,17.67
2019-05-22T21:55:11.332Z,21.33
2019-05-22T21:57:40.441Z,16.83
2019-05-22T22:00:16.016Z,16.83
2019-05-22T22:02:46.886Z,22.47
2019-05-22T22:05:16.193Z,17.70
2019-05-22T22:07:45.284Z,27.03
2019-05-22T22:10:15.268Z,23.20
2019-05-22T22:12:44.433Z,16.60
2019-05-22T22:15:14.753Z,19.00
2019-05-22T22:17:43.720Z,17.23
2019-05-22T22:20:12.878Z,22.10
2019-05-22T22:22:41.815Z,15.60
2019-05-22T22:25:11.099Z,18.20
2019-05-22T22:27:39.764Z,20.33
2019-05-22T22:30:17.457Z,18.10
2019-05-22T22:32:45.954Z,16.63
2019-05-22T22:35:15.860Z,19.13
2019-05-22T22:37:46.406Z,22.50
2019-05-22T22:40:17.886Z,20.60
2019-05-22T22:42:47.025Z,19.07
2019-05-22T22:45:35.508Z,19.57
2019-05-22T22:48:05.139Z,17.10
2019-05-22T22:50:34.572Z,18.63
2019-05-22T22:53:04.017Z,18.77
2019-05-22T22:55:33.826Z,19.13
2019-05-22T22:58:15.996Z,16.83
2019-05-22T23:00:34.152Z,19.33
2019-05-22T23:03:04.246Z,24.40
2019-05-22T23:05:34.317Z,21.60
2019-05-22T23:08:02.891Z,19.37
2019-05-22T23:10:32.593Z,18.67
2019-05-22T23:13:01.258Z,18.77
2019-05-22T23:15:30.003Z,19.53
2019-05-22T23:18:00.087Z,20.40
2019-05-22T23:20:28.911Z,17.50
2019-05-22T23:22:57.302Z,20.30
2019-05-22T23:25:25.941Z,17.57
2019-05-22T23:27:55.608Z,20.37
2019-05-22T23:30:24.081Z,19.62
2019-05-22T23:32:54.412Z,26.67
2019-05-22T23:35:22.957Z,21.23
2019-05-22T23:37:51.821Z,23.73
2019-05-22T23:40:26.749Z,22.53
2019-05-22T23:42:55.322Z,22.17
2019-05-22T23:45:24.438Z,19.70
2019-05-22T23:48:02.341Z,22.90
2019-05-22T23:50:33.398Z,21.87
2019-05-22T23:53:02.366Z,19.73
2019-05-22T23:55:32.197Z,20.27
2019-05-22T23:58:00.708Z,22.13
